createdAt,value
2022-12-31T00:00:59.796Z,14.00
2022-12-31T00:01:59.820Z,14.02
2022-12-31T00:02:59.931Z,14.02
2022-12-31T00:03:59.770Z,14.00
2022-12-31T00:04:59.733Z,14.04
2022-12-31T00:05:59.734Z,14.09
2022-12-31T00:06:59.712Z,14.14
2022-12-31T00:07:59.731Z,14.14
2022-12-31T00:08:59.717Z,14.15
2022-12-31T00:09:59.681Z,14.18
2022-12-31T00:10:59.665Z,14.22
2022-12-31T00:11:59.662Z,14.24
2022-12-31T00:12:59.938Z,14.27
2022-12-31T00:13:59.696Z,14.25
2022-12-31T00:14:59.625Z,14.24
2022-12-31T00:15:59.605Z,14.27
2022-12-31T00:16:59.684Z,14.27
2022-12-31T00:17:59.593Z,14.32
2022-12-31T00:18:59.605Z,14.35
2022-12-31T00:19:59.575Z,14.39
2022-12-31T00:20:59.547Z,14.43
2022-12-31T00:21:59.541Z,14.43
2022-12-31T00:22:59.524Z,14.45
2022-12-31T00:23:59.542Z,14.46
2022-12-31T00:24:59.507Z,14.50
2022-12-31T00:25:59.513Z,14.47
2022-12-31T00:26:59.593Z,14.50
2022-12-31T00:27:59.475Z,14.51
2022-12-31T00:28:59.464Z,14.54
2022-12-31T00:30:04.223Z,14.58
2022-12-31T00:31:00.446Z,14.62
2022-12-31T00:31:59.439Z,14.62
2022-12-31T00:32:59.415Z,14.61
2022-12-31T00:33:59.426Z,14.61
2022-12-31T00:34:59.387Z,14.62
2022-12-31T00:35:59.386Z,14.65
2022-12-31T00:36:59.366Z,14.69
2022-12-31T00:37:59.386Z,14.70
2022-12-31T00:38:59.357Z,14.70
2022-12-31T00:39:59.340Z,14.72
2022-12-31T00:40:59.326Z,14.77
2022-12-31T00:41:59.307Z,14.83
2022-12-31T00:42:59.306Z,14.83
2022-12-31T00:43:59.303Z,14.81
2022-12-31T00:44:59.269Z,14.81
2022-12-31T00:45:59.248Z,14.83
2022-12-31T00:47:06.492Z,14.84
2022-12-31T00:48:06.487Z,14.89
2022-12-31T00:49:06.466Z,14.92
2022-12-31T00:50:06.474Z,14.95
2022-12-31T00:51:07.453Z,14.96
2022-12-31T00:52:06.448Z,14.98
2022-12-31T00:53:06.476Z,14.96
2022-12-31T00:53:59.172Z,14.96
2022-12-31T00:54:59.160Z,14.95
2022-12-31T00:55:59.150Z,14.99
2022-12-31T00:56:59.162Z,15.02
2022-12-31T00:57:59.386Z,15.07
2022-12-31T00:58:59.173Z,15.09
2022-12-31T00:59:59.109Z,15.16
2022-12-31T01:00:59.159Z,15.19
2022-12-31T01:01:59.196Z,15.20
2022-12-31T01:02:59.175Z,15.21
2022-12-31T01:03:59.065Z,15.21
2022-12-31T01:04:59.041Z,15.17
2022-12-31T01:05:59.052Z,15.19
2022-12-31T01:06:59.030Z,15.21
2022-12-31T01:07:59.021Z,15.27
2022-12-31T01:08:59.022Z,15.29
2022-12-31T01:09:58.988Z,15.31
2022-12-31T01:10:58.989Z,15.29
2022-12-31T01:11:58.963Z,15.27
2022-12-31T01:12:58.952Z,15.28
2022-12-31T01:13:58.961Z,15.27
2022-12-31T01:14:58.939Z,15.27
2022-12-31T01:15:58.935Z,15.31
2022-12-31T01:16:58.930Z,15.32
2022-12-31T01:17:58.884Z,15.29
2022-12-31T01:18:58.932Z,15.29
2022-12-31T01:19:58.876Z,15.29
2022-12-31T01:20:58.853Z,15.28
2022-12-31T01:21:58.855Z,15.23
2022-12-31T01:22:58.855Z,15.27
2022-12-31T01:23:58.840Z,15.29
2022-12-31T01:24:58.803Z,15.25
2022-12-31T01:25:58.812Z,15.25
2022-12-31T01:26:58.794Z,15.25
2022-12-31T01:27:58.778Z,15.23
2022-12-31T01:28:58.796Z,15.21
2022-12-31T01:29:58.802Z,15.20
2022-12-31T01:30:58.837Z,15.23
2022-12-31T01:31:58.722Z,15.28
2022-12-31T01:32:58.746Z,15.29
2022-12-31T01:33:58.738Z,15.21
2022-12-31T01:34:58.694Z,15.16
2022-12-31T01:35:58.700Z,15.13
2022-12-31T01:36:58.676Z,15.14
2022-12-31T01:37:58.680Z,15.16
2022-12-31T01:38:58.667Z,15.20
2022-12-31T01:39:58.641Z,15.20
2022-12-31T01:40:58.618Z,15.17
2022-12-31T01:41:58.609Z,15.16
2022-12-31T01:42:58.617Z,15.13
2022-12-31T01:43:58.642Z,15.16
2022-12-31T01:44:58.607Z,15.16
2022-12-31T01:45:58.577Z,15.16
2022-12-31T01:46:58.565Z,15.14
2022-12-31T01:47:58.539Z,15.14
2022-12-31T01:48:58.539Z,15.17
2022-12-31T01:49:58.567Z,15.20
2022-12-31T01:50:58.524Z,15.21
2022-12-31T01:51:58.501Z,15.23
2022-12-31T01:52:58.508Z,15.20
2022-12-31T01:53:58.509Z,15.19
2022-12-31T01:54:58.472Z,15.19
2022-12-31T01:55:58.453Z,15.19
2022-12-31T01:56:58.453Z,15.19
2022-12-31T01:57:58.431Z,15.20
2022-12-31T01:58:58.435Z,15.23
2022-12-31T01:59:58.415Z,15.25
2022-12-31T02:00:58.473Z,15.27
2022-12-31T02:01:58.702Z,15.27
2022-12-31T02:02:58.403Z,15.28
2022-12-31T02:03:58.386Z,15.29
2022-12-31T02:04:58.341Z,15.28
2022-12-31T02:05:58.332Z,15.28
2022-12-31T02:06:58.345Z,15.28
2022-12-31T02:07:58.311Z,15.31
2022-12-31T02:08:58.332Z,15.34
2022-12-31T02:09:58.295Z,15.35
2022-12-31T02:10:58.337Z,15.34
2022-12-31T02:11:58.284Z,15.34
2022-12-31T02:12:58.259Z,15.34
2022-12-31T02:13:58.855Z,15.35
2022-12-31T02:14:58.234Z,15.29
2022-12-31T02:15:58.258Z,15.27
2022-12-31T02:16:58.215Z,15.25
2022-12-31T02:17:58.217Z,15.20
2022-12-31T02:18:58.205Z,15.19
2022-12-31T02:19:58.176Z,15.16
2022-12-31T02:20:58.174Z,15.17
2022-12-31T02:21:58.146Z,15.17
2022-12-31T02:22:58.133Z,15.16
2022-12-31T02:23:58.156Z,15.16
2022-12-31T02:24:58.132Z,15.13
2022-12-31T02:25:58.127Z,15.13
2022-12-31T02:27:06.115Z,15.13
2022-12-31T02:27:58.088Z,15.14
2022-12-31T02:28:58.097Z,15.16
2022-12-31T02:29:58.071Z,15.16
2022-12-31T02:30:58.114Z,15.16
2022-12-31T02:31:58.190Z,15.17
2022-12-31T02:32:58.038Z,15.17
2022-12-31T02:33:58.020Z,15.17
2022-12-31T02:34:58.036Z,15.21
2022-12-31T02:35:57.995Z,15.29
2022-12-31T02:36:57.978Z,15.35
2022-12-31T02:37:57.989Z,15.35
2022-12-31T02:38:57.988Z,15.32
2022-12-31T02:39:57.948Z,15.36
2022-12-31T02:40:57.955Z,15.36
2022-12-31T02:41:57.927Z,15.38
2022-12-31T02:42:57.946Z,15.36
2022-12-31T02:43:57.906Z,15.34
2022-12-31T02:44:57.901Z,15.32
2022-12-31T02:45:57.897Z,15.34
2022-12-31T02:46:58.140Z,15.38
2022-12-31T02:47:57.850Z,15.43
2022-12-31T02:48:58.158Z,15.56
2022-12-31T02:49:57.822Z,15.72
2022-12-31T02:50:57.802Z,15.75
2022-12-31T02:51:57.826Z,15.74
2022-12-31T02:52:57.791Z,15.72
2022-12-31T02:53:57.788Z,15.68
2022-12-31T02:54:57.798Z,15.68
2022-12-31T02:55:57.766Z,15.65
2022-12-31T02:57:05.029Z,15.62
2022-12-31T02:58:04.988Z,15.60
2022-12-31T02:59:04.976Z,15.60
2022-12-31T02:59:57.745Z,15.62
2022-12-31T03:01:05.028Z,15.60
2022-12-31T03:01:57.831Z,15.59
2022-12-31T03:02:57.756Z,15.53
2022-12-31T03:03:57.683Z,15.50
2022-12-31T03:04:57.652Z,15.44
2022-12-31T03:05:57.906Z,15.41
2022-12-31T03:06:57.657Z,15.43
2022-12-31T03:07:57.652Z,15.50
2022-12-31T03:08:57.652Z,15.51
2022-12-31T03:09:57.635Z,15.53
2022-12-31T03:10:57.582Z,15.49
2022-12-31T03:11:57.593Z,15.46
2022-12-31T03:12:57.569Z,15.43
2022-12-31T03:13:57.583Z,15.41
2022-12-31T03:14:57.545Z,15.38
2022-12-31T03:15:57.614Z,15.39
2022-12-31T03:16:57.521Z,15.44
2022-12-31T03:17:57.528Z,15.46
2022-12-31T03:18:57.508Z,15.47
2022-12-31T03:19:57.505Z,15.49
2022-12-31T03:20:57.480Z,15.51
2022-12-31T03:21:57.493Z,15.56
2022-12-31T03:22:57.464Z,15.54
2022-12-31T03:23:57.457Z,15.54
2022-12-31T03:24:57.437Z,15.53
2022-12-31T03:25:57.421Z,15.50
2022-12-31T03:26:57.407Z,15.47
2022-12-31T03:27:57.420Z,15.47
2022-12-31T03:28:57.475Z,15.49
2022-12-31T03:29:57.367Z,15.53
2022-12-31T03:30:57.372Z,15.53
2022-12-31T03:31:57.350Z,15.51
2022-12-31T03:32:57.328Z,15.50
2022-12-31T03:33:57.359Z,15.50
2022-12-31T03:34:57.308Z,15.53
2022-12-31T03:35:57.301Z,15.57
2022-12-31T03:36:57.294Z,15.60
2022-12-31T03:37:57.291Z,15.62
2022-12-31T03:38:57.300Z,15.60
2022-12-31T03:39:57.256Z,15.60
2022-12-31T03:40:57.250Z,15.64
2022-12-31T03:41:57.265Z,15.69
2022-12-31T03:42:57.230Z,15.72
2022-12-31T03:43:57.209Z,15.74
2022-12-31T03:44:57.198Z,15.74
2022-12-31T03:45:57.244Z,15.71
2022-12-31T03:46:57.180Z,15.64
2022-12-31T03:47:57.167Z,15.60
2022-12-31T03:48:57.192Z,15.60
2022-12-31T03:49:57.142Z,15.59
2022-12-31T03:50:57.112Z,15.64
2022-12-31T03:51:57.121Z,15.67
2022-12-31T03:52:57.132Z,15.76
2022-12-31T03:53:57.114Z,15.78
2022-12-31T03:54:57.078Z,15.78
2022-12-31T03:55:57.083Z,15.78
2022-12-31T03:57:00.268Z,15.75
2022-12-31T03:57:57.045Z,15.75
2022-12-31T03:58:57.029Z,15.75
2022-12-31T03:59:57.037Z,15.72
2022-12-31T04:00:57.162Z,15.72
2022-12-31T04:01:57.056Z,15.71
2022-12-31T04:02:57.090Z,15.68
2022-12-31T04:03:56.978Z,15.65
2022-12-31T04:04:56.969Z,15.71
2022-12-31T04:05:56.985Z,15.72
2022-12-31T04:06:56.945Z,15.74
2022-12-31T04:07:56.952Z,15.75
2022-12-31T04:08:56.919Z,15.76
2022-12-31T04:09:56.927Z,15.75
2022-12-31T04:10:56.896Z,15.78
2022-12-31T04:11:56.910Z,15.80
2022-12-31T04:12:56.887Z,15.86
2022-12-31T04:13:56.876Z,15.87
2022-12-31T04:14:56.838Z,15.84
2022-12-31T04:15:56.843Z,15.82
2022-12-31T04:16:56.832Z,15.78
2022-12-31T04:17:56.850Z,15.78
2022-12-31T04:18:56.818Z,15.76
2022-12-31T04:19:56.810Z,15.75
2022-12-31T04:20:56.766Z,15.80
2022-12-31T04:21:56.778Z,15.83
2022-12-31T04:22:56.814Z,15.82
2022-12-31T04:23:56.749Z,15.86
2022-12-31T04:24:56.739Z,15.84
2022-12-31T04:25:56.726Z,15.89
2022-12-31T04:26:59.652Z,15.92
2022-12-31T04:27:57.708Z,15.94
2022-12-31T04:28:56.731Z,15.94
2022-12-31T04:29:56.679Z,16.01
2022-12-31T04:30:56.696Z,16.00
2022-12-31T04:31:56.714Z,15.93
2022-12-31T04:32:56.693Z,15.87
2022-12-31T04:33:56.679Z,15.80
2022-12-31T04:34:56.609Z,15.76
2022-12-31T04:35:56.622Z,15.76
2022-12-31T04:36:56.604Z,15.75
2022-12-31T04:37:56.610Z,15.75
2022-12-31T04:38:56.572Z,15.76
2022-12-31T04:40:01.881Z,15.76
2022-12-31T04:40:57.557Z,15.75
2022-12-31T04:41:56.551Z,15.75
2022-12-31T04:42:56.565Z,15.80
2022-12-31T04:43:56.552Z,15.75
2022-12-31T04:44:56.545Z,15.74
2022-12-31T04:45:56.522Z,15.76
2022-12-31T04:46:56.489Z,15.80
2022-12-31T04:47:56.494Z,15.83
2022-12-31T04:48:56.502Z,15.82
2022-12-31T04:49:56.484Z,15.83
2022-12-31T04:50:56.444Z,15.86
2022-12-31T04:51:56.432Z,15.89
2022-12-31T04:52:56.419Z,16.00
2022-12-31T04:53:56.402Z,16.02
2022-12-31T04:54:56.389Z,16.09
2022-12-31T04:55:56.386Z,16.12
2022-12-31T04:56:56.373Z,16.17
2022-12-31T04:57:56.376Z,16.15
2022-12-31T04:58:56.361Z,16.14
2022-12-31T04:59:56.326Z,16.17
2022-12-31T05:00:56.586Z,16.15
2022-12-31T05:01:56.636Z,16.21
2022-12-31T05:03:03.801Z,16.21
2022-12-31T05:04:03.542Z,16.24
2022-12-31T05:04:56.320Z,16.25
2022-12-31T05:06:04.834Z,16.25
2022-12-31T05:06:56.532Z,16.31
2022-12-31T05:07:56.245Z,16.33
2022-12-31T05:08:56.243Z,16.45
2022-12-31T05:09:56.253Z,16.52
2022-12-31T05:10:56.212Z,16.50
2022-12-31T05:11:56.246Z,16.50
2022-12-31T05:12:56.193Z,16.46
2022-12-31T05:13:56.199Z,16.41
2022-12-31T05:14:56.161Z,16.35
2022-12-31T05:15:56.183Z,16.39
2022-12-31T05:16:56.173Z,16.46
2022-12-31T05:17:56.126Z,16.58
2022-12-31T05:18:56.127Z,16.63
2022-12-31T05:19:56.128Z,16.64
2022-12-31T05:20:56.100Z,16.63
2022-12-31T05:21:56.089Z,16.63
2022-12-31T05:22:56.071Z,16.61
2022-12-31T05:23:56.076Z,16.53
2022-12-31T05:24:56.061Z,16.49
2022-12-31T05:25:56.036Z,16.46
2022-12-31T05:26:56.040Z,16.50
2022-12-31T05:27:56.030Z,16.56
2022-12-31T05:28:56.027Z,16.64
2022-12-31T05:29:55.992Z,16.70
2022-12-31T05:30:56.010Z,16.78
2022-12-31T05:31:55.980Z,16.78
2022-12-31T05:32:56.283Z,16.83
2022-12-31T05:33:55.998Z,16.85
2022-12-31T05:34:55.922Z,16.82
2022-12-31T05:35:55.922Z,16.79
2022-12-31T05:36:55.939Z,16.76
2022-12-31T05:37:55.901Z,16.75
2022-12-31T05:38:55.869Z,16.75
2022-12-31T05:39:55.927Z,16.81
2022-12-31T05:40:55.870Z,16.76
2022-12-31T05:41:55.864Z,16.73
2022-12-31T05:42:55.852Z,16.71
2022-12-31T05:43:55.869Z,16.71
2022-12-31T05:44:55.830Z,16.68
2022-12-31T05:45:55.838Z,16.64
2022-12-31T05:46:55.804Z,16.66
2022-12-31T05:47:55.811Z,16.68
2022-12-31T05:48:55.785Z,16.71
2022-12-31T05:49:55.763Z,16.75
2022-12-31T05:50:55.777Z,16.75
2022-12-31T05:51:55.748Z,16.73
2022-12-31T05:52:55.755Z,16.71
2022-12-31T05:53:55.737Z,16.75
2022-12-31T05:54:55.691Z,16.75
2022-12-31T05:55:55.708Z,16.68
2022-12-31T05:56:55.674Z,16.64
2022-12-31T05:57:55.694Z,16.64
2022-12-31T05:58:55.707Z,16.63
2022-12-31T05:59:55.701Z,16.63
2022-12-31T06:00:56.456Z,16.67
2022-12-31T06:01:55.658Z,16.66
2022-12-31T06:02:55.754Z,16.66
2022-12-31T06:03:56.453Z,16.60
2022-12-31T06:04:55.605Z,16.60
2022-12-31T06:05:55.584Z,16.58
2022-12-31T06:06:55.565Z,16.60
2022-12-31T06:07:55.559Z,16.57
2022-12-31T06:08:55.549Z,16.53
2022-12-31T06:09:55.526Z,16.49
2022-12-31T06:10:55.548Z,16.46
2022-12-31T06:11:55.506Z,16.45
2022-12-31T06:12:55.510Z,16.41
2022-12-31T06:13:55.487Z,16.35
2022-12-31T06:14:55.496Z,16.35
2022-12-31T06:15:55.652Z,16.35
2022-12-31T06:16:55.440Z,16.38
2022-12-31T06:17:55.448Z,16.34
2022-12-31T06:18:55.449Z,16.34
2022-12-31T06:19:55.493Z,16.42
2022-12-31T06:20:55.415Z,16.45
2022-12-31T06:21:55.411Z,16.42
2022-12-31T06:22:55.388Z,16.39
2022-12-31T06:23:55.368Z,16.41
2022-12-31T06:24:55.370Z,16.42
2022-12-31T06:25:55.371Z,16.42
2022-12-31T06:26:55.342Z,16.43
2022-12-31T06:27:55.361Z,16.46
2022-12-31T06:28:55.325Z,16.56
2022-12-31T06:29:55.340Z,16.61
2022-12-31T06:30:55.614Z,16.68
2022-12-31T06:31:55.294Z,16.66
2022-12-31T06:32:55.329Z,16.66
2022-12-31T06:33:55.287Z,16.67
2022-12-31T06:34:55.252Z,16.68
2022-12-31T06:35:55.243Z,16.68
2022-12-31T06:36:55.228Z,16.70
2022-12-31T06:37:55.225Z,16.71
2022-12-31T06:38:55.238Z,16.75
2022-12-31T06:39:55.192Z,16.71
2022-12-31T06:40:55.191Z,16.68
2022-12-31T06:41:55.169Z,16.68
2022-12-31T06:42:59.859Z,16.71
2022-12-31T06:43:56.143Z,16.75
2022-12-31T06:44:55.136Z,16.73
2022-12-31T06:45:55.132Z,16.73
2022-12-31T06:46:55.181Z,16.73
2022-12-31T06:47:55.097Z,16.71
2022-12-31T06:48:55.119Z,16.78
2022-12-31T06:49:55.135Z,16.88
2022-12-31T06:50:55.088Z,16.94
2022-12-31T06:51:55.056Z,16.94
2022-12-31T06:52:55.080Z,17.00
2022-12-31T06:53:55.036Z,17.00
2022-12-31T06:54:55.006Z,16.97
2022-12-31T06:55:55.027Z,17.00
2022-12-31T06:56:54.995Z,16.97
2022-12-31T06:57:54.991Z,16.96
2022-12-31T06:58:54.996Z,16.93
2022-12-31T06:59:55.007Z,16.93
2022-12-31T07:00:55.021Z,16.93
2022-12-31T07:01:54.986Z,16.93
2022-12-31T07:02:55.004Z,16.94
2022-12-31T07:03:54.919Z,16.91
2022-12-31T07:04:54.906Z,16.93
2022-12-31T07:05:54.886Z,16.89
2022-12-31T07:06:54.879Z,16.88
2022-12-31T07:08:02.120Z,16.85
2022-12-31T07:09:03.121Z,16.86
2022-12-31T07:10:02.105Z,16.88
2022-12-31T07:11:03.080Z,16.89
2022-12-31T07:12:03.079Z,16.88
2022-12-31T07:12:54.808Z,16.89
2022-12-31T07:13:54.778Z,16.97
2022-12-31T07:14:54.794Z,17.01
2022-12-31T07:15:54.827Z,17.03
2022-12-31T07:16:54.767Z,17.03
2022-12-31T07:17:54.740Z,17.04
2022-12-31T07:18:54.761Z,17.04
2022-12-31T07:19:57.632Z,17.08
2022-12-31T07:20:54.738Z,17.08
2022-12-31T07:21:54.739Z,17.15
2022-12-31T07:22:54.709Z,17.16
2022-12-31T07:23:54.679Z,17.14
2022-12-31T07:24:54.681Z,17.11
2022-12-31T07:25:54.674Z,17.15
2022-12-31T07:26:57.006Z,17.15
2022-12-31T07:27:54.654Z,17.15
2022-12-31T07:28:54.641Z,17.14
2022-12-31T07:29:54.608Z,17.14
2022-12-31T07:30:54.712Z,17.14
2022-12-31T07:31:54.610Z,17.11
2022-12-31T07:32:54.592Z,17.06
2022-12-31T07:33:54.571Z,17.04
2022-12-31T07:34:54.563Z,16.97
2022-12-31T07:35:54.562Z,16.94
2022-12-31T07:36:54.553Z,16.94
2022-12-31T07:37:54.513Z,16.98
2022-12-31T07:38:54.542Z,17.00
2022-12-31T07:39:54.483Z,16.98
2022-12-31T07:40:55.935Z,17.03
2022-12-31T07:41:54.484Z,17.04
2022-12-31T07:42:54.454Z,17.06
2022-12-31T07:43:54.475Z,17.03
2022-12-31T07:44:54.697Z,17.07
2022-12-31T07:45:54.423Z,17.11
2022-12-31T07:46:54.494Z,17.11
2022-12-31T07:48:00.501Z,17.12
2022-12-31T07:48:55.418Z,17.12
2022-12-31T07:49:54.408Z,17.08
2022-12-31T07:50:54.410Z,17.08
2022-12-31T07:51:54.385Z,17.04
2022-12-31T07:52:54.346Z,16.98
2022-12-31T07:53:54.363Z,16.97
2022-12-31T07:54:54.320Z,16.98
2022-12-31T07:55:54.323Z,17.01
2022-12-31T07:56:54.307Z,17.07
2022-12-31T07:57:54.316Z,17.14
2022-12-31T07:58:54.286Z,17.15
2022-12-31T07:59:54.278Z,17.15
2022-12-31T08:00:54.586Z,17.15
2022-12-31T08:01:54.420Z,17.12
2022-12-31T08:02:54.271Z,17.12
2022-12-31T08:03:54.218Z,17.14
2022-12-31T08:04:54.208Z,17.14
2022-12-31T08:05:54.213Z,17.12
2022-12-31T08:06:54.468Z,17.12
2022-12-31T08:07:54.196Z,17.12
2022-12-31T08:08:54.166Z,17.12
2022-12-31T08:09:54.162Z,17.11
2022-12-31T08:10:54.141Z,17.08
2022-12-31T08:11:54.137Z,17.06
2022-12-31T08:12:54.134Z,17.07
2022-12-31T08:13:54.149Z,17.07
2022-12-31T08:14:56.828Z,17.08
2022-12-31T08:15:54.206Z,17.12
2022-12-31T08:16:55.032Z,17.11
2022-12-31T08:17:54.082Z,17.12
2022-12-31T08:18:54.068Z,17.14
2022-12-31T08:19:54.042Z,17.15
2022-12-31T08:20:54.029Z,17.16
2022-12-31T08:21:54.001Z,17.16
2022-12-31T08:22:54.019Z,17.16
2022-12-31T08:23:54.022Z,17.15
2022-12-31T08:24:54.056Z,17.16
2022-12-31T08:25:53.962Z,17.21
2022-12-31T08:26:53.979Z,17.25
2022-12-31T08:27:53.942Z,17.31
2022-12-31T08:28:53.980Z,17.34
2022-12-31T08:29:53.923Z,17.37
2022-12-31T08:30:53.925Z,17.38
2022-12-31T08:31:53.951Z,17.37
2022-12-31T08:32:53.990Z,17.36
2022-12-31T08:33:53.891Z,17.37
2022-12-31T08:34:53.892Z,17.36
2022-12-31T08:35:53.884Z,17.36
2022-12-31T08:36:53.955Z,17.36
2022-12-31T08:37:54.135Z,17.38
2022-12-31T08:38:53.844Z,17.38
2022-12-31T08:39:53.837Z,17.38
2022-12-31T08:40:53.838Z,17.37
2022-12-31T08:41:53.835Z,17.36
2022-12-31T08:42:53.776Z,17.33
2022-12-31T08:43:53.796Z,17.31
2022-12-31T08:44:53.785Z,17.33
2022-12-31T08:45:53.804Z,17.34
2022-12-31T08:46:53.780Z,17.37
2022-12-31T08:47:59.483Z,17.41
2022-12-31T08:48:54.710Z,17.43
2022-12-31T08:49:53.716Z,17.44
2022-12-31T08:50:53.752Z,17.43
2022-12-31T08:51:53.707Z,17.40
2022-12-31T08:52:53.682Z,17.38
2022-12-31T08:53:53.689Z,17.52
2022-12-31T08:54:53.652Z,17.49
2022-12-31T08:55:53.652Z,17.48
2022-12-31T08:56:53.657Z,17.44
2022-12-31T08:57:53.628Z,17.40
2022-12-31T08:58:53.608Z,17.38
2022-12-31T08:59:53.607Z,17.40
2022-12-31T09:00:53.630Z,17.41
2022-12-31T09:01:53.703Z,17.44
2022-12-31T09:02:53.575Z,17.48
2022-12-31T09:03:53.618Z,17.46
2022-12-31T09:04:53.543Z,17.48
2022-12-31T09:05:53.526Z,17.52
2022-12-31T09:06:53.552Z,17.55
2022-12-31T09:07:53.519Z,17.54
2022-12-31T09:08:53.507Z,17.52
2022-12-31T09:09:53.489Z,17.51
2022-12-31T09:10:53.501Z,17.48
2022-12-31T09:11:53.493Z,17.48
2022-12-31T09:12:53.470Z,17.48
2022-12-31T09:13:53.485Z,17.49
2022-12-31T09:14:53.440Z,17.49
2022-12-31T09:15:53.422Z,17.51
2022-12-31T09:16:53.434Z,17.54
2022-12-31T09:17:53.398Z,17.58
2022-12-31T09:18:53.400Z,17.62
2022-12-31T09:19:53.370Z,17.66
2022-12-31T09:20:53.384Z,17.66
2022-12-31T09:21:53.365Z,17.63
2022-12-31T09:22:53.350Z,17.63
2022-12-31T09:23:53.350Z,17.63
2022-12-31T09:24:53.333Z,17.63
2022-12-31T09:25:53.315Z,17.68
2022-12-31T09:26:53.306Z,17.70
2022-12-31T09:27:53.287Z,17.71
2022-12-31T09:28:53.306Z,17.71
2022-12-31T09:29:53.286Z,17.75
2022-12-31T09:30:53.267Z,17.77
2022-12-31T09:31:53.276Z,17.79
2022-12-31T09:33:00.400Z,17.81
2022-12-31T09:33:54.290Z,17.82
2022-12-31T09:34:53.212Z,17.82
2022-12-31T09:35:53.244Z,17.84
2022-12-31T09:36:53.176Z,17.84
2022-12-31T09:37:53.198Z,17.86
2022-12-31T09:38:53.220Z,17.90
2022-12-31T09:39:53.177Z,17.93
2022-12-31T09:40:53.430Z,17.96
2022-12-31T09:41:53.157Z,17.99
2022-12-31T09:42:53.413Z,17.99
2022-12-31T09:43:58.949Z,18.00
2022-12-31T09:44:54.103Z,18.02
2022-12-31T09:45:53.131Z,18.07
2022-12-31T09:46:53.083Z,18.10
2022-12-31T09:47:53.071Z,18.08
2022-12-31T09:48:53.111Z,18.08
2022-12-31T09:49:53.042Z,18.11
2022-12-31T09:50:53.059Z,18.12
2022-12-31T09:51:53.043Z,18.10
2022-12-31T09:52:53.012Z,18.08
2022-12-31T09:53:53.010Z,18.08
2022-12-31T09:54:53.024Z,18.07
2022-12-31T09:55:52.983Z,18.05
2022-12-31T09:56:58.783Z,18.05
2022-12-31T09:57:53.957Z,18.07
2022-12-31T09:58:52.968Z,18.05
2022-12-31T09:59:52.946Z,18.03
2022-12-31T10:00:53.010Z,18.03
2022-12-31T10:01:53.277Z,18.05
2022-12-31T10:02:52.988Z,18.08
2022-12-31T10:03:52.913Z,18.03
2022-12-31T10:04:52.874Z,18.05
2022-12-31T10:05:52.908Z,18.07
2022-12-31T10:06:52.856Z,18.11
2022-12-31T10:07:53.815Z,18.12
2022-12-31T10:08:52.858Z,18.14
2022-12-31T10:09:52.830Z,18.15
2022-12-31T10:10:53.725Z,18.14
2022-12-31T10:11:52.800Z,18.17
2022-12-31T10:12:52.816Z,18.23
2022-12-31T10:13:52.785Z,18.29
2022-12-31T10:14:52.765Z,18.27
2022-12-31T10:15:52.777Z,18.25
2022-12-31T10:16:52.789Z,18.23
2022-12-31T10:17:52.727Z,18.21
2022-12-31T10:18:52.771Z,18.26
2022-12-31T10:19:52.721Z,18.26
2022-12-31T10:20:52.696Z,18.21
2022-12-31T10:21:52.701Z,18.25
2022-12-31T10:22:52.685Z,18.23
2022-12-31T10:23:52.668Z,18.26
2022-12-31T10:24:52.647Z,18.27
2022-12-31T10:25:52.650Z,18.26
2022-12-31T10:26:53.520Z,18.27
2022-12-31T10:27:52.626Z,18.27
2022-12-31T10:28:52.640Z,18.27
2022-12-31T10:29:52.588Z,18.26
2022-12-31T10:30:52.609Z,18.27
2022-12-31T10:31:52.579Z,18.27
2022-12-31T10:32:52.575Z,18.27
2022-12-31T10:33:52.546Z,18.27
2022-12-31T10:34:52.586Z,18.32
2022-12-31T10:35:52.540Z,18.36
2022-12-31T10:36:52.509Z,18.39
2022-12-31T10:37:52.502Z,18.41
2022-12-31T10:38:52.506Z,18.39
2022-12-31T10:39:52.485Z,18.41
2022-12-31T10:40:52.482Z,18.42
2022-12-31T10:41:52.463Z,18.48
2022-12-31T10:42:52.431Z,18.51
2022-12-31T10:43:52.454Z,18.47
2022-12-31T10:44:52.433Z,18.44
2022-12-31T10:45:52.432Z,18.45
2022-12-31T10:46:52.393Z,18.45
2022-12-31T10:47:52.405Z,18.44
2022-12-31T10:48:52.431Z,18.41
2022-12-31T10:49:52.370Z,18.39
2022-12-31T10:50:52.383Z,18.39
2022-12-31T10:51:52.345Z,18.36
2022-12-31T10:52:52.317Z,18.32
2022-12-31T10:53:52.323Z,18.33
2022-12-31T10:54:52.313Z,18.32
2022-12-31T10:55:52.314Z,18.32
2022-12-31T10:56:52.266Z,18.32
2022-12-31T10:57:52.276Z,18.30
2022-12-31T10:58:52.269Z,18.29
2022-12-31T10:59:52.254Z,18.26
2022-12-31T11:00:52.255Z,18.26
2022-12-31T11:01:52.318Z,18.27
2022-12-31T11:02:52.341Z,18.30
2022-12-31T11:03:52.202Z,18.29
2022-12-31T11:04:52.215Z,18.30
2022-12-31T11:05:52.211Z,18.33
2022-12-31T11:06:52.161Z,18.35
2022-12-31T11:07:52.159Z,18.36
2022-12-31T11:08:52.167Z,18.36
2022-12-31T11:09:52.136Z,18.33
2022-12-31T11:10:52.123Z,18.33
2022-12-31T11:11:52.113Z,18.33
2022-12-31T11:12:52.101Z,18.35
2022-12-31T11:13:52.098Z,18.33
2022-12-31T11:14:53.789Z,18.33
2022-12-31T11:15:52.166Z,18.33
2022-12-31T11:16:52.049Z,18.36
2022-12-31T11:17:52.039Z,18.39
2022-12-31T11:18:52.043Z,18.42
2022-12-31T11:19:51.997Z,18.45
2022-12-31T11:20:52.242Z,18.45
2022-12-31T11:21:51.991Z,18.45
2022-12-31T11:22:51.969Z,18.42
2022-12-31T11:23:52.003Z,18.47
2022-12-31T11:24:51.976Z,18.47
2022-12-31T11:25:51.951Z,18.47
2022-12-31T11:26:51.929Z,18.45
2022-12-31T11:27:52.192Z,18.42
2022-12-31T11:28:51.921Z,18.37
2022-12-31T11:29:52.134Z,18.36
2022-12-31T11:30:51.918Z,18.37
2022-12-31T11:31:51.917Z,18.36
2022-12-31T11:32:52.123Z,18.37
2022-12-31T11:33:51.854Z,18.36
2022-12-31T11:34:51.832Z,18.36
2022-12-31T11:35:51.846Z,18.33
2022-12-31T11:36:51.816Z,18.30
2022-12-31T11:37:51.819Z,18.29
2022-12-31T11:38:51.802Z,18.26
2022-12-31T11:39:52.061Z,18.27
2022-12-31T11:40:51.757Z,18.26
2022-12-31T11:41:51.771Z,18.29
2022-12-31T11:42:52.918Z,18.29
2022-12-31T11:43:51.735Z,18.32
2022-12-31T11:44:51.708Z,18.32
2022-12-31T11:45:51.748Z,18.30
2022-12-31T11:46:51.711Z,18.29
2022-12-31T11:48:28.734Z,18.27
2022-12-31T11:48:52.687Z,18.26
2022-12-31T11:49:51.649Z,18.23
2022-12-31T11:50:51.638Z,18.23
2022-12-31T11:51:51.618Z,18.21
2022-12-31T11:52:51.617Z,18.20
2022-12-31T11:53:51.651Z,18.17
2022-12-31T11:54:51.597Z,18.12
2022-12-31T11:55:51.585Z,18.14
2022-12-31T11:56:51.577Z,18.12
2022-12-31T11:57:51.574Z,18.14
2022-12-31T11:58:51.567Z,18.15
2022-12-31T11:59:51.532Z,18.15
2022-12-31T12:00:51.519Z,18.17
2022-12-31T12:01:51.542Z,18.20
2022-12-31T12:02:51.556Z,18.18
2022-12-31T12:03:51.545Z,18.18
2022-12-31T12:04:51.478Z,18.21
2022-12-31T12:05:51.476Z,18.21
2022-12-31T12:06:51.475Z,18.20
2022-12-31T12:07:51.447Z,18.21
2022-12-31T12:08:51.442Z,18.21
2022-12-31T12:09:51.435Z,18.18
2022-12-31T12:10:51.409Z,18.18
2022-12-31T12:11:51.396Z,18.17
2022-12-31T12:12:51.419Z,18.18
2022-12-31T12:13:51.401Z,18.20
2022-12-31T12:14:51.381Z,18.20
2022-12-31T12:15:51.512Z,18.20
2022-12-31T12:16:51.376Z,18.20
2022-12-31T12:17:51.332Z,18.25
2022-12-31T12:18:51.324Z,18.26
2022-12-31T12:19:51.333Z,18.26
2022-12-31T12:20:51.312Z,18.25
2022-12-31T12:21:51.285Z,18.25
2022-12-31T12:22:51.280Z,18.20
2022-12-31T12:23:51.263Z,18.17
2022-12-31T12:24:51.263Z,18.17
2022-12-31T12:25:51.273Z,18.18
2022-12-31T12:26:51.234Z,18.20
2022-12-31T12:27:51.224Z,18.18
2022-12-31T12:28:51.218Z,18.20
2022-12-31T12:29:51.195Z,18.20
2022-12-31T12:30:51.196Z,18.17
2022-12-31T12:31:51.215Z,18.18
2022-12-31T12:32:51.145Z,18.20
2022-12-31T12:33:51.151Z,18.21
2022-12-31T12:34:51.124Z,18.21
2022-12-31T12:35:51.141Z,18.20
2022-12-31T12:36:51.106Z,18.21
2022-12-31T12:37:51.106Z,18.23
2022-12-31T12:38:51.097Z,18.20
2022-12-31T12:39:51.087Z,18.21
2022-12-31T12:40:51.096Z,18.23
2022-12-31T12:41:51.057Z,18.27
2022-12-31T12:42:51.042Z,18.27
2022-12-31T12:43:51.031Z,18.29
2022-12-31T12:44:51.007Z,18.33
2022-12-31T12:45:52.350Z,18.36
2022-12-31T12:46:51.042Z,18.35
2022-12-31T12:47:50.972Z,18.36
2022-12-31T12:48:50.966Z,18.37
2022-12-31T12:49:50.949Z,18.39
2022-12-31T12:50:50.988Z,18.37
2022-12-31T12:51:50.925Z,18.35
2022-12-31T12:52:53.834Z,18.33